createdAt,value
2018-05-21T00:01:54.013Z,14.40
2018-05-21T00:04:21.581Z,14.39
2018-05-21T00:06:49.113Z,14.33
2018-05-21T00:09:16.737Z,14.39
2018-05-21T00:11:44.290Z,14.45
2018-05-21T00:14:11.839Z,14.25
2018-05-21T00:16:39.398Z,14.08
2018-05-21T00:19:06.997Z,14.14
2018-05-21T00:21:34.546Z,13.99
2018-05-21T00:24:02.101Z,13.92
2018-05-21T00:26:29.662Z,14.08
2018-05-21T00:28:57.906Z,13.98
2018-05-21T00:31:25.511Z,13.95
2018-05-21T00:33:53.061Z,14.00
2018-05-21T00:36:20.713Z,14.05
2018-05-21T00:38:48.272Z,14.01
2018-05-21T00:41:15.867Z,13.83
2018-05-21T00:43:43.417Z,13.72
2018-05-21T00:46:10.969Z,13.75
2018-05-21T00:48:38.534Z,13.64
2018-05-21T00:51:06.179Z,13.68
2018-05-21T00:53:33.727Z,13.74
2018-05-21T00:56:01.282Z,13.75
2018-05-21T00:58:28.848Z,13.66
2018-05-21T01:00:56.433Z,13.66
2018-05-21T01:03:23.986Z,13.67
2018-05-21T01:05:51.568Z,13.62
2018-05-21T01:08:19.156Z,13.60
2018-05-21T01:10:46.748Z,13.56
2018-05-21T01:13:14.293Z,13.59
2018-05-21T01:15:41.959Z,13.65
2018-05-21T01:18:09.425Z,13.65
2018-05-21T01:20:36.978Z,13.63
2018-05-21T01:23:04.499Z,13.67
2018-05-21T01:25:32.156Z,13.61
2018-05-21T01:27:59.789Z,13.60
2018-05-21T01:30:28.085Z,13.65
2018-05-21T01:32:55.715Z,13.59
2018-05-21T01:35:23.290Z,13.57
2018-05-21T01:37:50.822Z,13.51
2018-05-21T01:40:18.461Z,13.49
2018-05-21T01:42:45.921Z,13.56
2018-05-21T01:45:13.502Z,13.65
2018-05-21T01:47:41.124Z,13.66
2018-05-21T01:50:08.631Z,13.47
2018-05-21T01:52:36.185Z,13.45
2018-05-21T01:55:03.733Z,13.40
2018-05-21T01:57:31.300Z,13.42
2018-05-21T01:59:58.859Z,13.44
2018-05-21T02:02:26.416Z,12.99
2018-05-21T02:04:53.945Z,12.75
2018-05-21T02:07:21.490Z,12.73
2018-05-21T02:09:49.014Z,12.81
2018-05-21T02:12:16.656Z,12.80
2018-05-21T02:14:44.214Z,12.51
2018-05-21T02:17:11.778Z,12.36
2018-05-21T02:19:39.293Z,12.45
2018-05-21T02:22:06.857Z,12.44
2018-05-21T02:24:34.386Z,12.27
2018-05-21T02:27:02.031Z,12.05
2018-05-21T02:29:29.512Z,11.90
2018-05-21T02:31:57.069Z,11.90
2018-05-21T02:34:24.596Z,12.09
2018-05-21T02:36:52.153Z,12.01
2018-05-21T02:39:19.764Z,12.15
2018-05-21T02:41:47.301Z,12.05
2018-05-21T02:44:14.884Z,12.17
2018-05-21T02:46:42.431Z,12.07
2018-05-21T02:49:10.045Z,11.95
2018-05-21T02:51:37.582Z,11.81
2018-05-21T02:54:05.281Z,11.93
2018-05-21T02:56:32.836Z,11.88
2018-05-21T02:59:00.390Z,11.94
2018-05-21T03:01:28.765Z,12.01
2018-05-21T03:03:56.323Z,11.90
2018-05-21T03:06:23.995Z,11.94
2018-05-21T03:08:51.527Z,11.81
2018-05-21T03:11:19.104Z,11.76
2018-05-21T03:13:46.625Z,11.68
2018-05-21T03:16:14.182Z,11.58
2018-05-21T03:18:41.706Z,11.56
2018-05-21T03:21:09.227Z,11.48
2018-05-21T03:23:36.786Z,11.51
2018-05-21T03:26:04.307Z,11.26
2018-05-21T03:28:31.918Z,11.24
2018-05-21T03:30:59.477Z,11.25
2018-05-21T03:33:27.141Z,11.12
2018-05-21T03:35:54.677Z,11.08
2018-05-21T03:38:22.249Z,11.01
2018-05-21T03:40:49.828Z,11.03
2018-05-21T03:43:17.402Z,11.07
2018-05-21T03:45:44.937Z,10.94
2018-05-21T03:48:12.498Z,10.89
2018-05-21T03:50:40.055Z,10.72
2018-05-21T03:53:07.719Z,10.75
2018-05-21T03:55:35.259Z,10.85
2018-05-21T03:58:02.819Z,10.92
2018-05-21T04:00:42.167Z,11.02
2018-05-21T04:03:21.423Z,10.87
2018-05-21T04:05:48.948Z,10.94
2018-05-21T04:08:16.502Z,10.91
2018-05-21T04:10:44.084Z,11.00
2018-05-21T04:13:12.501Z,10.94
2018-05-21T04:15:40.033Z,10.86
2018-05-21T04:18:07.610Z,10.95
2018-05-21T04:20:35.132Z,10.92
2018-05-21T04:23:02.689Z,10.96
2018-05-21T04:25:30.281Z,11.12
2018-05-21T04:27:57.820Z,11.12
2018-05-21T04:30:25.345Z,11.20
2018-05-21T04:32:52.899Z,11.09
2018-05-21T04:35:20.426Z,10.99
2018-05-21T04:37:48.059Z,11.03
2018-05-21T04:40:15.626Z,11.17
2018-05-21T04:42:43.182Z,11.19
2018-05-21T04:45:10.716Z,11.15
2018-05-21T04:47:38.265Z,11.25
2018-05-21T04:50:05.778Z,11.42
2018-05-21T04:52:33.414Z,11.49
2018-05-21T04:55:00.945Z,11.54
2018-05-21T04:57:28.518Z,11.53
2018-05-21T04:59:56.073Z,11.73
2018-05-21T05:02:23.591Z,11.81
2018-05-21T05:04:51.178Z,11.90
2018-05-21T05:07:18.704Z,12.06
2018-05-21T05:09:46.312Z,12.07
2018-05-21T05:12:13.903Z,12.09
2018-05-21T05:14:41.460Z,12.19
2018-05-21T05:17:09.060Z,12.31
2018-05-21T05:19:36.669Z,12.37
2018-05-21T05:22:04.217Z,12.58
2018-05-21T05:24:31.769Z,12.76
2018-05-21T05:26:59.421Z,12.87
2018-05-21T05:29:27.015Z,13.05
2018-05-21T05:31:54.678Z,13.13
2018-05-21T05:34:22.233Z,13.19
2018-05-21T05:36:49.793Z,13.27
2018-05-21T05:39:17.331Z,13.34
2018-05-21T05:41:44.910Z,13.43
2018-05-21T05:44:12.583Z,13.51
2018-05-21T05:46:40.114Z,13.57
2018-05-21T05:49:07.699Z,13.63
2018-05-21T05:51:35.248Z,13.76
2018-05-21T05:54:02.795Z,13.82
2018-05-21T05:56:30.572Z,13.88
2018-05-21T05:58:58.125Z,13.88
2018-05-21T06:01:25.738Z,13.97
2018-05-21T06:03:53.254Z,14.07
2018-05-21T06:06:20.807Z,14.18
2018-05-21T06:08:48.358Z,14.28
2018-05-21T06:11:15.890Z,14.31
2018-05-21T06:13:43.493Z,14.39
2018-05-21T06:16:11.015Z,14.50
2018-05-21T06:18:38.565Z,14.56
2018-05-21T06:21:06.171Z,14.65
2018-05-21T06:23:33.830Z,14.75
2018-05-21T06:26:01.449Z,14.83
2018-05-21T06:28:28.923Z,14.84
2018-05-21T06:30:56.475Z,14.93
2018-05-21T06:33:24.031Z,15.01
2018-05-21T06:35:51.634Z,15.04
2018-05-21T06:38:19.183Z,15.16
2018-05-21T06:40:46.909Z,15.20
2018-05-21T06:43:14.506Z,15.34
2018-05-21T06:45:43.826Z,15.44
2018-05-21T06:48:11.940Z,15.50
2018-05-21T06:50:43.242Z,15.57
2018-05-21T06:53:11.409Z,15.63
2018-05-21T06:55:41.200Z,15.71
2018-05-21T06:58:08.729Z,15.85
2018-05-21T07:00:38.118Z,15.93
2018-05-21T07:03:05.659Z,15.98
2018-05-21T07:05:35.281Z,16.08
2018-05-21T07:08:03.787Z,16.23
2018-05-21T07:10:32.865Z,16.26
2018-05-21T07:13:03.943Z,16.33
2018-05-21T07:15:34.876Z,16.40
2018-05-21T07:18:05.556Z,16.44
2018-05-21T07:20:36.557Z,16.52
2018-05-21T07:23:06.282Z,16.69
2018-05-21T07:25:34.518Z,16.69
2018-05-21T07:28:04.960Z,16.78
2018-05-21T07:30:33.477Z,16.90
2018-05-21T07:33:02.766Z,17.00
2018-05-21T07:35:32.838Z,17.09
2018-05-21T07:38:04.140Z,17.24
2018-05-21T07:40:32.594Z,17.22
2018-05-21T07:43:01.189Z,17.19
2018-05-21T07:45:30.473Z,17.30
2018-05-21T07:48:01.146Z,17.40
2018-05-21T07:50:34.383Z,17.51
2018-05-21T07:53:07.619Z,17.56
2018-05-21T07:55:36.888Z,17.63
2018-05-21T07:58:05.285Z,17.53
2018-05-21T08:00:34.555Z,17.55
2018-05-21T08:03:04.178Z,17.71
2018-05-21T08:05:31.937Z,17.77
2018-05-21T08:07:59.465Z,17.87
2018-05-21T08:10:27.365Z,17.92
2018-05-21T08:12:56.321Z,17.91
2018-05-21T08:15:24.097Z,18.04
2018-05-21T08:17:51.691Z,18.15
2018-05-21T08:20:19.479Z,18.24
2018-05-21T08:22:49.955Z,18.34
2018-05-21T08:25:17.661Z,18.36
2018-05-21T08:27:45.184Z,18.46
2018-05-21T08:30:12.887Z,18.65
2018-05-21T08:32:40.444Z,18.78
2018-05-21T08:35:08.001Z,18.75
2018-05-21T08:37:36.142Z,18.90
2018-05-21T08:40:03.745Z,18.93
2018-05-21T08:42:32.112Z,18.96
2018-05-21T08:45:00.534Z,19.25
2018-05-21T08:47:32.756Z,19.24
2018-05-21T08:50:03.949Z,19.08
2018-05-21T08:52:33.523Z,19.17
2018-05-21T08:55:03.578Z,19.34
2018-05-21T08:57:33.628Z,19.33
2018-05-21T09:00:03.844Z,19.41
2018-05-21T09:02:34.074Z,19.53
2018-05-21T09:05:04.249Z,19.27
2018-05-21T09:07:38.768Z,19.51
2018-05-21T09:10:08.788Z,19.72
2018-05-21T09:12:38.566Z,19.73
2018-05-21T09:15:10.951Z,19.72
2018-05-21T09:17:40.578Z,19.81
2018-05-21T09:20:08.307Z,19.80
2018-05-21T09:22:39.795Z,20.01
2018-05-21T09:25:08.162Z,20.02
2018-05-21T09:27:36.805Z,20.06
2018-05-21T09:30:06.916Z,20.11
2018-05-21T09:32:34.692Z,19.99
2018-05-21T09:35:02.265Z,19.87
2018-05-21T09:37:29.814Z,20.18
2018-05-21T09:39:57.349Z,20.33
2018-05-21T09:42:24.927Z,20.32
2018-05-21T09:44:52.505Z,20.44
2018-05-21T09:47:20.054Z,20.54
2018-05-21T09:49:47.573Z,20.59
2018-05-21T09:52:15.133Z,20.64
2018-05-21T09:54:42.727Z,20.65
2018-05-21T09:57:10.283Z,20.74
2018-05-21T09:59:37.816Z,20.84
2018-05-21T10:02:05.374Z,20.65
2018-05-21T10:04:32.977Z,20.74
2018-05-21T10:07:00.552Z,20.46
2018-05-21T10:09:28.393Z,20.82
2018-05-21T10:11:55.953Z,21.01
2018-05-21T10:14:23.482Z,20.94
2018-05-21T10:16:51.034Z,21.01
2018-05-21T10:19:18.599Z,21.05
2018-05-21T10:21:46.152Z,21.10
2018-05-21T10:24:13.764Z,21.09
2018-05-21T10:26:41.320Z,21.16
2018-05-21T10:29:09.738Z,21.09
2018-05-21T10:31:37.389Z,21.28
2018-05-21T10:34:05.024Z,21.35
2018-05-21T10:36:32.601Z,21.53
2018-05-21T10:39:00.153Z,21.75
2018-05-21T10:41:27.855Z,21.57
2018-05-21T10:43:55.513Z,21.40
2018-05-21T10:46:23.126Z,21.67
2018-05-21T10:48:52.228Z,21.68
2018-05-21T10:51:19.903Z,22.03
2018-05-21T10:53:47.865Z,22.02
2018-05-21T10:56:15.503Z,22.20
2018-05-21T10:58:43.021Z,22.19
2018-05-21T11:01:10.622Z,22.37
2018-05-21T11:03:39.074Z,22.32
2018-05-21T11:06:06.605Z,22.35
2018-05-21T11:08:35.280Z,22.56
2018-05-21T11:11:02.881Z,22.46
2018-05-21T11:13:31.911Z,22.42
2018-05-21T11:15:59.585Z,22.53
2018-05-21T11:18:27.134Z,22.46
2018-05-21T11:20:55.192Z,22.72
2018-05-21T11:23:23.072Z,22.62
2018-05-21T11:25:50.631Z,22.99
2018-05-21T11:28:18.196Z,23.09
2018-05-21T11:30:46.571Z,22.64
2018-05-21T11:33:14.150Z,22.82
2018-05-21T11:35:41.678Z,22.93
2018-05-21T11:38:09.232Z,22.82
2018-05-21T11:40:36.757Z,23.06
2018-05-21T11:43:04.653Z,22.94
2018-05-21T11:45:32.163Z,22.92
2018-05-21T11:47:59.739Z,23.20
2018-05-21T11:50:27.265Z,23.41
2018-05-21T11:52:54.818Z,23.37
2018-05-21T11:55:22.353Z,23.18
2018-05-21T11:57:49.935Z,23.34
2018-05-21T12:00:18.727Z,23.75
2018-05-21T12:02:46.443Z,24.06
2018-05-21T12:05:13.942Z,23.96
2018-05-21T12:07:46.854Z,24.09
2018-05-21T12:10:14.333Z,24.04
2018-05-21T12:12:42.510Z,23.78
2018-05-21T12:15:10.741Z,23.97
2018-05-21T12:17:38.320Z,24.11
2018-05-21T12:20:05.841Z,23.90
2018-05-21T12:22:33.398Z,24.02
2018-05-21T12:25:00.946Z,24.17
2018-05-21T12:27:29.168Z,23.90
2018-05-21T12:29:56.778Z,23.86
2018-05-21T12:32:24.330Z,23.88
2018-05-21T12:34:51.856Z,24.30
2018-05-21T12:37:20.064Z,24.26
2018-05-21T12:39:47.635Z,23.99
2018-05-21T12:42:15.415Z,23.88
2018-05-21T12:44:43.014Z,24.06
2018-05-21T12:47:10.640Z,24.42
2018-05-21T12:49:38.298Z,24.08
2018-05-21T12:52:05.821Z,24.22
2018-05-21T12:54:34.522Z,23.87
2018-05-21T12:57:02.145Z,24.04
2018-05-21T12:59:29.773Z,23.82
2018-05-21T13:01:57.304Z,23.65
2018-05-21T13:04:24.859Z,23.84
2018-05-21T13:06:52.386Z,23.50
2018-05-21T13:09:19.942Z,23.83
2018-05-21T13:11:47.566Z,24.14
2018-05-21T13:14:15.118Z,24.55
2018-05-21T13:16:42.643Z,24.66
2018-05-21T13:19:10.195Z,24.43
2018-05-21T13:21:37.799Z,24.63
2018-05-21T13:24:05.489Z,24.71
2018-05-21T13:26:33.029Z,24.82
2018-05-21T13:29:00.579Z,24.71
2018-05-21T13:31:28.105Z,24.59
2018-05-21T13:34:00.002Z,24.36
2018-05-21T13:36:27.686Z,24.34
2018-05-21T13:38:56.277Z,24.83
2018-05-21T13:41:23.793Z,25.01
2018-05-21T13:43:57.353Z,24.76
2018-05-21T13:46:25.745Z,24.94
2018-05-21T13:49:07.543Z,24.98
2018-05-21T13:51:35.273Z,24.93
2018-05-21T13:54:02.828Z,24.92
2018-05-21T13:56:37.049Z,24.93
2018-05-21T13:59:04.759Z,25.27
2018-05-21T14:01:32.335Z,25.41
2018-05-21T14:04:00.001Z,25.15
2018-05-21T14:06:27.538Z,24.80
2018-05-21T14:08:55.116Z,24.90
2018-05-21T14:11:22.687Z,25.40
2018-05-21T14:13:50.213Z,25.67
2018-05-21T14:16:17.817Z,25.88
2018-05-21T14:18:45.348Z,25.86
2018-05-21T14:21:12.951Z,25.87
2018-05-21T14:23:40.504Z,25.43
2018-05-21T14:26:08.056Z,25.59
2018-05-21T14:28:35.583Z,25.76
2018-05-21T14:31:03.161Z,25.62
2018-05-21T14:33:30.691Z,25.66
2018-05-21T14:35:58.293Z,26.04
2018-05-21T14:38:25.819Z,26.33
2018-05-21T14:40:53.394Z,26.44
2018-05-21T14:43:20.947Z,25.70
2018-05-21T14:45:48.503Z,25.71
2018-05-21T14:48:16.102Z,25.52
2018-05-21T14:50:43.598Z,25.36
2018-05-21T14:53:11.535Z,25.22
2018-05-21T14:55:39.504Z,25.68
2018-05-21T14:58:09.762Z,25.92
2018-05-21T15:00:37.581Z,25.94
2018-05-21T15:03:05.216Z,26.16
2018-05-21T15:05:32.822Z,25.90
2018-05-21T15:08:00.343Z,25.55
2018-05-21T15:10:30.091Z,25.27
2018-05-21T15:13:00.497Z,25.01
2018-05-21T15:15:28.202Z,24.65
2018-05-21T15:17:55.802Z,24.81
2018-05-21T15:20:24.066Z,24.68
2018-05-21T15:22:51.702Z,24.81
2018-05-21T15:25:19.287Z,24.63
2018-05-21T15:27:47.436Z,24.62
2018-05-21T15:30:15.114Z,24.74
2018-05-21T15:32:43.214Z,24.59
2018-05-21T15:35:10.869Z,24.88
2018-05-21T15:37:38.425Z,25.07
2018-05-21T15:40:05.938Z,25.08
2018-05-21T15:42:33.530Z,25.03
2018-05-21T15:45:01.076Z,25.01
2018-05-21T15:47:28.628Z,24.96
2018-05-21T15:49:56.157Z,24.92
2018-05-21T15:52:23.709Z,24.99
2018-05-21T15:54:51.336Z,24.65
2018-05-21T15:57:18.891Z,24.58
2018-05-21T15:59:47.290Z,24.90
2018-05-21T16:02:14.872Z,24.94
2018-05-21T16:04:43.358Z,24.48
2018-05-21T16:07:10.921Z,24.72
2018-05-21T16:09:38.530Z,24.86
2018-05-21T16:12:06.077Z,24.79
2018-05-21T16:14:33.654Z,24.88
2018-05-21T16:17:01.202Z,25.31
2018-05-21T16:19:28.766Z,25.87
2018-05-21T16:21:56.672Z,26.34
2018-05-21T16:24:24.409Z,26.65
2018-05-21T16:26:52.164Z,26.53
2018-05-21T16:29:19.810Z,26.76
2018-05-21T16:31:47.486Z,26.62
2018-05-21T16:34:15.247Z,27.20
2018-05-21T16:36:43.499Z,26.89
2018-05-21T16:39:11.086Z,26.44
2018-05-21T16:41:38.655Z,26.22
2018-05-21T16:44:06.178Z,26.13
2018-05-21T16:46:33.779Z,26.16
2018-05-21T16:49:01.337Z,27.83
2018-05-21T16:51:28.987Z,30.62
2018-05-21T16:53:56.743Z,31.90
2018-05-21T16:56:24.239Z,31.54
2018-05-21T16:58:51.766Z,30.84
2018-05-21T17:01:19.353Z,28.97
2018-05-21T17:03:46.996Z,31.60
2018-05-21T17:06:14.551Z,30.66
2018-05-21T17:08:43.229Z,29.63
2018-05-21T17:11:10.798Z,29.79
2018-05-21T17:13:38.460Z,30.87
2018-05-21T17:16:06.009Z,30.26
2018-05-21T17:18:33.584Z,31.18
2018-05-21T17:21:01.130Z,30.52
2018-05-21T17:23:28.686Z,29.49
2018-05-21T17:25:56.221Z,29.58
2018-05-21T17:28:23.819Z,31.65
2018-05-21T17:30:51.417Z,32.51
2018-05-21T17:33:19.027Z,33.08
2018-05-21T17:35:46.603Z,34.14
2018-05-21T17:38:14.236Z,32.06
2018-05-21T17:40:41.807Z,33.50
2018-05-21T17:43:09.377Z,31.94
2018-05-21T17:45:36.934Z,32.54
2018-05-21T17:48:04.537Z,31.99
2018-05-21T17:50:32.087Z,32.54
2018-05-21T17:52:59.708Z,30.57
2018-05-21T17:55:27.245Z,30.39
2018-05-21T17:57:54.839Z,30.13
2018-05-21T18:00:22.372Z,28.80
2018-05-21T18:02:49.948Z,28.99
2018-05-21T18:05:17.504Z,27.96
2018-05-21T18:07:45.167Z,28.06
2018-05-21T18:10:12.677Z,27.88
2018-05-21T18:12:40.233Z,26.82
2018-05-21T18:15:07.910Z,26.78
2018-05-21T18:17:36.310Z,26.17
2018-05-21T18:20:04.759Z,25.86
2018-05-21T18:22:33.352Z,25.30
2018-05-21T18:25:01.799Z,25.51
2018-05-21T18:27:30.479Z,25.06
2018-05-21T18:29:58.250Z,24.84
2018-05-21T18:32:26.187Z,24.34
2018-05-21T18:34:54.778Z,24.06
2018-05-21T18:37:22.305Z,23.60
2018-05-21T18:39:49.889Z,22.98
2018-05-21T18:42:25.767Z,23.04
2018-05-21T18:45:06.347Z,22.83
2018-05-21T18:47:40.237Z,22.45
2018-05-21T18:50:09.279Z,22.55
2018-05-21T18:52:42.198Z,22.12
2018-05-21T18:55:10.221Z,22.10
2018-05-21T18:57:37.747Z,21.72
2018-05-21T19:00:05.310Z,21.63
2018-05-21T19:02:32.855Z,21.46
2018-05-21T19:05:00.405Z,21.37
2018-05-21T19:07:27.937Z,21.02
2018-05-21T19:09:56.634Z,20.93
2018-05-21T19:12:24.193Z,20.60
2018-05-21T19:14:51.768Z,20.02
2018-05-21T19:17:19.532Z,20.42
2018-05-21T19:19:48.521Z,20.47
2018-05-21T19:22:16.184Z,20.35
2018-05-21T19:24:44.279Z,20.24
2018-05-21T19:27:14.903Z,20.16
2018-05-21T19:29:43.174Z,20.04
2018-05-21T19:32:11.107Z,19.82
2018-05-21T19:34:38.690Z,19.82
2018-05-21T19:37:06.251Z,19.63
2018-05-21T19:39:33.839Z,19.34
2018-05-21T19:42:01.501Z,19.23
2018-05-21T19:44:29.057Z,19.23
2018-05-21T19:46:57.491Z,19.16
2018-05-21T19:49:31.831Z,19.07
2018-05-21T19:51:59.624Z,19.05
2018-05-21T19:54:27.618Z,18.82
2018-05-21T19:56:55.202Z,18.75
2018-05-21T19:59:22.762Z,18.66
2018-05-21T20:01:50.266Z,18.46
2018-05-21T20:04:17.809Z,18.37
2018-05-21T20:06:45.333Z,18.02
2018-05-21T20:09:12.918Z,17.95
2018-05-21T20:11:40.464Z,18.02
2018-05-21T20:14:08.017Z,18.10
2018-05-21T20:16:35.541Z,17.89
2018-05-21T20:19:03.097Z,17.69
2018-05-21T20:21:30.696Z,17.57
2018-05-21T20:23:58.278Z,17.72
2018-05-21T20:26:25.783Z,17.69
2018-05-21T20:28:53.600Z,17.64
2018-05-21T20:31:21.255Z,17.47
2018-05-21T20:33:49.237Z,17.19
2018-05-21T20:36:16.806Z,17.33
2018-05-21T20:38:46.040Z,17.24
2018-05-21T20:41:13.843Z,17.33
2018-05-21T20:43:41.370Z,17.22
2018-05-21T20:46:08.925Z,17.10
2018-05-21T20:48:36.447Z,17.12
2018-05-21T20:51:04.002Z,16.83
2018-05-21T20:53:31.554Z,16.84
2018-05-21T20:55:59.104Z,16.89
2018-05-21T20:58:26.743Z,16.88
2018-05-21T21:00:56.427Z,16.71
2018-05-21T21:03:24.461Z,16.64
2018-05-21T21:05:52.037Z,16.80
2018-05-21T21:08:19.643Z,16.59
2018-05-21T21:10:47.194Z,16.60
2018-05-21T21:13:14.719Z,16.63
2018-05-21T21:15:42.271Z,16.52
2018-05-21T21:18:09.804Z,16.39
2018-05-21T21:20:37.425Z,16.09
2018-05-21T21:23:04.949Z,16.06
2018-05-21T21:25:32.584Z,16.04
2018-05-21T21:28:00.148Z,16.06
2018-05-21T21:30:27.683Z,16.19
2018-05-21T21:32:55.254Z,16.06
2018-05-21T21:35:22.790Z,16.08
2018-05-21T21:37:50.308Z,16.11
2018-05-21T21:40:17.894Z,16.02
2018-05-21T21:42:45.500Z,16.44
2018-05-21T21:45:13.263Z,16.90
2018-05-21T21:47:40.825Z,17.27
2018-05-21T21:50:08.456Z,17.17
2018-05-21T21:52:35.981Z,16.99
2018-05-21T21:55:03.611Z,17.57
2018-05-21T21:57:31.134Z,16.77
2018-05-21T21:59:58.685Z,16.19
2018-05-21T22:02:26.215Z,16.19
2018-05-21T22:04:53.743Z,15.94
2018-05-21T22:07:21.286Z,15.93
2018-05-21T22:09:51.667Z,15.82
2018-05-21T22:12:19.583Z,16.02
2018-05-21T22:14:47.402Z,15.62
2018-05-21T22:17:15.029Z,15.52
2018-05-21T22:19:42.532Z,15.65
2018-05-21T22:22:10.080Z,15.78
2018-05-21T22:24:37.743Z,15.75
2018-05-21T22:27:05.310Z,15.89
2018-05-21T22:29:32.866Z,16.04
2018-05-21T22:32:00.401Z,16.09
2018-05-21T22:34:28.011Z,15.95
2018-05-21T22:36:55.702Z,16.10
2018-05-21T22:39:23.346Z,16.21
2018-05-21T22:41:50.925Z,16.22
2018-05-21T22:44:18.522Z,16.21
2018-05-21T22:46:46.148Z,15.75
2018-05-21T22:49:13.705Z,15.87
2018-05-21T22:51:41.281Z,15.82
2018-05-21T22:54:08.811Z,15.87
2018-05-21T22:56:36.359Z,15.91
2018-05-21T22:59:03.972Z,15.98
2018-05-21T23:01:31.541Z,16.08
2018-05-21T23:03:59.138Z,16.07
2018-05-21T23:06:26.693Z,16.05
2018-05-21T23:08:54.275Z,15.97
2018-05-21T23:11:21.827Z,15.80
2018-05-21T23:13:49.394Z,15.94
2018-05-21T23:16:17.854Z,16.08
2018-05-21T23:18:45.380Z,15.98
2018-05-21T23:21:12.937Z,16.06
2018-05-21T23:23:42.759Z,15.99
2018-05-21T23:26:12.742Z,16.01
2018-05-21T23:28:43.081Z,16.07
2018-05-21T23:31:11.347Z,16.01
2018-05-21T23:33:39.040Z,15.97
2018-05-21T23:36:06.915Z,15.96
2018-05-21T23:38:35.014Z,15.85
2018-05-21T23:41:03.166Z,15.61
2018-05-21T23:43:32.054Z,15.49
2018-05-21T23:45:59.957Z,15.31
2018-05-21T23:48:27.506Z,15.42
2018-05-21T23:50:55.334Z,15.27
2018-05-21T23:53:22.944Z,15.35
2018-05-21T23:55:50.511Z,15.41
2018-05-21T23:58:21.711Z,15.61
